Caselton, Nevada
Current Conditions -  °F | °C
As of 12:53 AM on Saturday 20 Dec 2014 (Local Time) from KELY Reporting Station
Scattered Clouds Scattered Clouds  
Wind Chill: 18°   Ceiling: Unl
Heat Index: 24°   Visibility: 10mi
Dew Point: 22°   Wind: 5mph
Humidity: 91%   Direction: 130°SE
Pressure: 30.15"   Gusts: NA
Location:  38.2635°N, 114.484°W
Report Text: KELY 200853Z AUTO 13004KT 10SM SCT070 M04/M06 A3015 RMK AO2 SLP210 T10441056 58000
Loading
Personal Weather Stations






























Interactive Weather Map New forecast layout! Learn more

10-Day Weather Forecast

Advertisements
Track Severe Weather on mobile